COOK1: Arkansas River Nr Coolidge, KS

                                SHEF ID:       COOK1     ARKANSAS R NR COOLIDGE, KS
STATION TYPE:
Regulating: Stage = 8.00, Flow = 2050

PRECIP STAGE STAGE(2) RIV-FLOW WTR-TEMP CONDUCT BAT-LOAD
in ft ft cfs F umho/cm volt
Ccp-Rev Ccp-Rev Ccp-Rev Ccp-Rev Ccp-Rev Ccp-Rev Ccp-Rev
(America/Chicago)
07/13 00:00 0.00 2.85 3.03 88 77.59 5404 12.95
07/13 01:00 0.00 2.85 3.00 88 76.03 5492 12.95
07/13 02:00 0.00 2.84 2.99 87 74.55 5562 12.89
07/13 03:00 0.00 2.83 2.98 86 73.17 5616 12.89
07/13 04:00 0.00 2.81 2.96 84 71.87 5652 12.89
07/13 05:00 0.00 2.82 2.97 85 70.81 5663 12.89
07/13 06:00 0.00 2.83 2.98 86 69.93 5666 12.89
07/13 07:00 0.00 2.87 3.05 90 69.08 5625 12.89
07/13 08:00 0.00 2.91 3.09 95 68.65 5582 12.89
07/13 09:00 0.00 2.94 3.12 98 69.17 5517 12.89
07/13 10:00 0.00 2.99 3.18 104 70.45 5404 13.12
07/13 11:00 0.00 3.06 3.25 113 72.27 5256 13.48
07/13 12:00 0.00 3.12 3.31 121 74.32 4838 13.71
07/13 13:00 0.00 3.17 3.35 128 76.60 4412 13.71
07/13 14:00 0.00 3.17 3.36 128 78.93 4162 13.59
07/13 15:00 0.00 3.22 3.43 135 80.82 4043 13.59
07/13 16:00 0.00 3.31 3.50 148 82.13 3935 13.48
07/13 17:00 0.00 3.37 3.57 158 83.35 3836 13.42
07/13 18:00 0.00 3.37 3.58 158 84.18 3751 13.18
07/13 19:00 0.00 3.41 3.60 164 84.02 3654 13.18
07/13 20:00 0.00 3.44 3.66 169 83.25 3587 13.07
07/13 21:00 0.00 3.46 3.67 172 82.33 3553 13.12
07/13 22:00 0.00 3.51 3.70 180 81.23 3512 13.00
07/13 23:00 ---- ---- ---- ---- ---- ---- ----
Data processed at Sun 14Jul2024 04:30 GMT

Parsing this webpage?

Checkout our new Data API! CWMSDataAPI (CDA)

Timeseries IDs (TSIDs)

TSIDs used from left to right in the data table
COOL.Precip-Inc.Total.1Hour.1Hour.Ccp-Rev
COOL.Stage.Inst.1Hour.0.Ccp-Rev
COOL.Stage-Alt.Inst.1Hour.0.Ccp-Rev
COOL.Flow.Inst.1Hour.0.Ccp-Rev
COOL.Temp-Water.Inst.1Hour.0.Ccp-Rev
COOL.Cond.Inst.1Hour.0.Ccp-Rev
COOL.Volt-Battery Load.Inst.1Hour.0.Ccp-Rev

                            

All information presented herein is the property of the government of the United States of America and may be revised or deleted at any time without prior notice. Dissemination of this information without the expressed written consent of the Public Affairs Office, Tulsa District U.S. Army Corps of Engineers is strictly prohibited. These data are gathered electronically and, as presented, have NOT undergone any form of quality control. These data are NOT guaranteed to be valid or correct.